sensor_id;sensor_type;location;lat;lon;timestamp;temperature;humidity
38854;DHT22;24606;51.992;4.198;2023-04-24T00:01:27;11.30;99.90
38854;DHT22;24606;51.992;4.198;2023-04-24T00:06:30;11.90;99.90
38854;DHT22;24606;51.992;4.198;2023-04-24T00:11:35;12.20;99.90
38854;DHT22;24606;51.992;4.198;2023-04-24T00:16:37;11.50;99.90
38854;DHT22;24606;51.992;4.198;2023-04-24T00:21:39;11.30;99.90
38854;DHT22;24606;51.992;4.198;2023-04-24T00:26:42;11.80;99.90
38854;DHT22;24606;51.992;4.198;2023-04-24T00:31:44;11.60;99.90
38854;DHT22;24606;51.992;4.198;2023-04-24T00:36:46;12.90;99.90
38854;DHT22;24606;51.992;4.198;2023-04-24T00:41:52;11.80;99.90
38854;DHT22;24606;51.992;4.198;2023-04-24T00:46:55;11.10;99.90
38854;DHT22;24606;51.992;4.198;2023-04-24T00:51:58;12.40;99.90
38854;DHT22;24606;51.992;4.198;2023-04-24T00:57:01;11.90;99.90
38854;DHT22;24606;51.992;4.198;2023-04-24T01:02:04;11.50;99.90
38854;DHT22;24606;51.992;4.198;2023-04-24T01:07:06;12.50;99.90
38854;DHT22;24606;51.992;4.198;2023-04-24T01:12:12;12.50;99.90
38854;DHT22;24606;51.992;4.198;2023-04-24T01:17:14;12.40;99.90
38854;DHT22;24606;51.992;4.198;2023-04-24T01:22:17;11.80;99.90
38854;DHT22;24606;51.992;4.198;2023-04-24T01:27:19;13.00;99.90
38854;DHT22;24606;51.992;4.198;2023-04-24T01:32:21;12.70;99.90
38854;DHT22;24606;51.992;4.198;2023-04-24T01:37:25;14.10;99.90
38854;DHT22;24606;51.992;4.198;2023-04-24T01:42:27;14.70;99.90
38854;DHT22;24606;51.992;4.198;2023-04-24T01:47:30;14.50;99.90
38854;DHT22;24606;51.992;4.198;2023-04-24T01:52:34;14.60;99.90
38854;DHT22;24606;51.992;4.198;2023-04-24T01:57:36;14.40;99.90
38854;DHT22;24606;51.992;4.198;2023-04-24T02:02:39;15.20;99.90
38854;DHT22;24606;51.992;4.198;2023-04-24T02:07:42;13.20;99.90
38854;DHT22;24606;51.992;4.198;2023-04-24T02:12:44;13.30;99.90
38854;DHT22;24606;51.992;4.198;2023-04-24T02:17:46;13.60;99.90
38854;DHT22;24606;51.992;4.198;2023-04-24T02:22:49;14.20;99.90
38854;DHT22;24606;51.992;4.198;2023-04-24T02:27:51;13.80;99.90
38854;DHT22;24606;51.992;4.198;2023-04-24T02:32:53;14.00;99.90
38854;DHT22;24606;51.992;4.198;2023-04-24T02:37:57;14.50;99.90
38854;DHT22;24606;51.992;4.198;2023-04-24T02:42:59;14.70;99.90
38854;DHT22;24606;51.992;4.198;2023-04-24T02:48:00;13.90;99.90
38854;DHT22;24606;51.992;4.198;2023-04-24T02:53:04;12.50;99.90
38854;DHT22;24606;51.992;4.198;2023-04-24T02:58:05;11.80;99.90
38854;DHT22;24606;51.992;4.198;2023-04-24T03:03:07;11.30;99.90
38854;DHT22;24606;51.992;4.198;2023-04-24T03:08:10;11.20;99.90
38854;DHT22;24606;51.992;4.198;2023-04-24T03:13:12;12.80;99.90
38854;DHT22;24606;51.992;4.198;2023-04-24T03:18:14;11.80;99.90
38854;DHT22;24606;51.992;4.198;2023-04-24T03:23:17;12.00;99.90
38854;DHT22;24606;51.992;4.198;2023-04-24T03:28:19;12.30;99.90
38854;DHT22;24606;51.992;4.198;2023-04-24T03:33:21;11.80;99.90
38854;DHT22;24606;51.992;4.198;2023-04-24T03:38:24;12.60;99.90
38854;DHT22;24606;51.992;4.198;2023-04-24T03:43:26;11.80;99.90
38854;DHT22;24606;51.992;4.198;2023-04-24T03:48:28;12.00;99.90
38854;DHT22;24606;51.992;4.198;2023-04-24T03:53:32;11.20;99.90
38854;DHT22;24606;51.992;4.198;2023-04-24T03:58:33;11.10;99.90
38854;DHT22;24606;51.992;4.198;2023-04-24T04:03:36;11.00;99.90
38854;DHT22;24606;51.992;4.198;2023-04-24T04:08:39;11.20;99.90
38854;DHT22;24606;51.992;4.198;2023-04-24T04:13:41;10.20;99.90
38854;DHT22;24606;51.992;4.198;2023-04-24T04:18:43;11.10;99.90
38854;DHT22;24606;51.992;4.198;2023-04-24T04:23:46;10.90;99.90
38854;DHT22;24606;51.992;4.198;2023-04-24T04:28:48;10.90;99.90
38854;DHT22;24606;51.992;4.198;2023-04-24T04:33:50;11.80;99.90
38854;DHT22;24606;51.992;4.198;2023-04-24T04:38:53;9.90;99.90
38854;DHT22;24606;51.992;4.198;2023-04-24T04:43:55;10.10;99.90
38854;DHT22;24606;51.992;4.198;2023-04-24T04:48:59;11.20;99.90
38854;DHT22;24606;51.992;4.198;2023-04-24T04:54:03;10.50;99.90
38854;DHT22;24606;51.992;4.198;2023-04-24T04:59:05;10.40;99.90
38854;DHT22;24606;51.992;4.198;2023-04-24T05:04:07;11.70;99.90
38854;DHT22;24606;51.992;4.198;2023-04-24T05:09:10;11.20;99.90
38854;DHT22;24606;51.992;4.198;2023-04-24T05:14:12;10.70;99.90
38854;DHT22;24606;51.992;4.198;2023-04-24T05:19:14;10.50;99.90
38854;DHT22;24606;51.992;4.198;2023-04-24T05:24:17;10.80;99.90
38854;DHT22;24606;51.992;4.198;2023-04-24T05:29:19;11.10;99.90
38854;DHT22;24606;51.992;4.198;2023-04-24T05:34:21;10.80;99.90
38854;DHT22;24606;51.992;4.198;2023-04-24T05:39:24;11.20;99.90
38854;DHT22;24606;51.992;4.198;2023-04-24T05:44:26;11.70;99.90
38854;DHT22;24606;51.992;4.198;2023-04-24T05:49:28;10.60;99.90
38854;DHT22;24606;51.992;4.198;2023-04-24T05:54:31;10.30;99.90
38854;DHT22;24606;51.992;4.198;2023-04-24T05:59:33;10.80;99.90
38854;DHT22;24606;51.992;4.198;2023-04-24T06:04:35;11.10;99.90
38854;DHT22;24606;51.992;4.198;2023-04-24T06:09:38;11.00;99.90
38854;DHT22;24606;51.992;4.198;2023-04-24T06:14:40;10.10;99.90
38854;DHT22;24606;51.992;4.198;2023-04-24T06:19:42;11.00;99.90
38854;DHT22;24606;51.992;4.198;2023-04-24T06:24:45;11.20;99.90
38854;DHT22;24606;51.992;4.198;2023-04-24T06:29:47;11.50;99.90
38854;DHT22;24606;51.992;4.198;2023-04-24T06:34:54;11.60;99.90
38854;DHT22;24606;51.992;4.198;2023-04-24T06:39:57;11.50;99.90
38854;DHT22;24606;51.992;4.198;2023-04-24T06:44:59;11.60;99.90
38854;DHT22;24606;51.992;4.198;2023-04-24T06:50:01;10.80;99.90
38854;DHT22;24606;51.992;4.198;2023-04-24T06:55:06;11.50;99.90
38854;DHT22;24606;51.992;4.198;2023-04-24T07:00:09;10.70;99.90
38854;DHT22;24606;51.992;4.198;2023-04-24T07:05:11;10.40;99.90
38854;DHT22;24606;51.992;4.198;2023-04-24T07:10:14;10.50;99.90
38854;DHT22;24606;51.992;4.198;2023-04-24T07:15:16;11.20;99.90
38854;DHT22;24606;51.992;4.198;2023-04-24T07:20:18;10.70;99.90
38854;DHT22;24606;51.992;4.198;2023-04-24T07:25:21;11.00;99.90
38854;DHT22;24606;51.992;4.198;2023-04-24T07:30:23;12.00;99.90
38854;DHT22;24606;51.992;4.198;2023-04-24T07:35:26;10.60;99.90
38854;DHT22;24606;51.992;4.198;2023-04-24T07:40:29;10.20;99.90
38854;DHT22;24606;51.992;4.198;2023-04-24T07:45:31;11.80;99.90
38854;DHT22;24606;51.992;4.198;2023-04-24T07:50:36;10.50;99.90
38854;DHT22;24606;51.992;4.198;2023-04-24T07:55:39;10.10;99.90
38854;DHT22;24606;51.992;4.198;2023-04-24T08:00:41;11.00;99.90
38854;DHT22;24606;51.992;4.198;2023-04-24T08:05:43;11.00;99.90
38854;DHT22;24606;51.992;4.198;2023-04-24T08:10:46;11.80;99.90
38854;DHT22;24606;51.992;4.198;2023-04-24T08:15:48;11.20;99.90
38854;DHT22;24606;51.992;4.198;2023-04-24T08:20:50;11.30;99.90
38854;DHT22;24606;51.992;4.198;2023-04-24T08:25:54;11.20;99.90
38854;DHT22;24606;51.992;4.198;2023-04-24T08:30:55;11.20;99.90
38854;DHT22;24606;51.992;4.198;2023-04-24T08:35:57;10.70;99.90
38854;DHT22;24606;51.992;4.198;2023-04-24T08:41:03;11.70;99.90
38854;DHT22;24606;51.992;4.198;2023-04-24T08:46:05;11.80;99.90
38854;DHT22;24606;51.992;4.198;2023-04-24T08:51:08;10.80;99.90
38854;DHT22;24606;51.992;4.198;2023-04-24T08:56:12;11.40;99.90
38854;DHT22;24606;51.992;4.198;2023-04-24T09:01:14;10.80;99.90
38854;DHT22;24606;51.992;4.198;2023-04-24T09:06:17;10.40;99.90
38854;DHT22;24606;51.992;4.198;2023-04-24T09:11:22;11.00;99.90
38854;DHT22;24606;51.992;4.198;2023-04-24T09:16:26;10.40;99.90
38854;DHT22;24606;51.992;4.198;2023-04-24T09:21:32;11.10;99.90
38854;DHT22;24606;51.992;4.198;2023-04-24T09:26:36;12.50;99.90
38854;DHT22;24606;51.992;4.198;2023-04-24T09:31:38;13.40;99.90
38854;DHT22;24606;51.992;4.198;2023-04-24T09:36:41;13.80;99.90
38854;DHT22;24606;51.992;4.198;2023-04-24T09:41:46;12.10;99.90
38854;DHT22;24606;51.992;4.198;2023-04-24T09:46:50;11.90;99.90
38854;DHT22;24606;51.992;4.198;2023-04-24T09:51:52;11.50;99.90
38854;DHT22;24606;51.992;4.198;2023-04-24T09:57:06;11.10;99.90
38854;DHT22;24606;51.992;4.198;2023-04-24T10:02:17;11.60;99.90
38854;DHT22;24606;51.992;4.198;2023-04-24T10:07:19;10.70;99.90
38854;DHT22;24606;51.992;4.198;2023-04-24T10:12:23;11.80;99.90
38854;DHT22;24606;51.992;4.198;2023-04-24T10:17:26;14.50;99.40
38854;DHT22;24606;51.992;4.198;2023-04-24T10:22:30;13.10;94.30
38854;DHT22;24606;51.992;4.198;2023-04-24T10:27:34;12.70;99.90
38854;DHT22;24606;51.992;4.198;2023-04-24T10:32:36;12.70;99.90
38854;DHT22;24606;51.992;4.198;2023-04-24T10:37:40;13.10;99.90
38854;DHT22;24606;51.992;4.198;2023-04-24T10:42:47;14.10;92.00
38854;DHT22;24606;51.992;4.198;2023-04-24T10:48:01;12.60;99.90
38854;DHT22;24606;51.992;4.198;2023-04-24T10:53:07;13.20;99.90
38854;DHT22;24606;51.992;4.198;2023-04-24T10:58:15;14.00;96.70
38854;DHT22;24606;51.992;4.198;2023-04-24T11:03:25;13.30;93.40
38854;DHT22;24606;51.992;4.198;2023-04-24T11:08:30;14.30;95.10
38854;DHT22;24606;51.992;4.198;2023-04-24T11:14:08;14.80;95.80
38854;DHT22;24606;51.992;4.198;2023-04-24T11:19:17;14.30;97.80
38854;DHT22;24606;51.992;4.198;2023-04-24T11:24:27;13.20;91.60
38854;DHT22;24606;51.992;4.198;2023-04-24T11:29:40;14.50;95.80
38854;DHT22;24606;51.992;4.198;2023-04-24T11:34:45;15.00;95.70
38854;DHT22;24606;51.992;4.198;2023-04-24T11:39:51;14.40;88.90
38854;DHT22;24606;51.992;4.198;2023-04-24T11:44:55;13.70;94.50
38854;DHT22;24606;51.992;4.198;2023-04-24T11:49:58;12.80;99.90
38854;DHT22;24606;51.992;4.198;2023-04-24T11:55:00;13.20;99.40
38854;DHT22;24606;51.992;4.198;2023-04-24T12:00:05;13.80;97.70
38854;DHT22;24606;51.992;4.198;2023-04-24T12:05:08;13.90;95.40
38854;DHT22;24606;51.992;4.198;2023-04-24T12:10:12;12.60;97.80
38854;DHT22;24606;51.992;4.198;2023-04-24T12:15:18;13.90;99.90
38854;DHT22;24606;51.992;4.198;2023-04-24T12:20:24;14.50;88.90
38854;DHT22;24606;51.992;4.198;2023-04-24T12:25:28;13.70;97.30
38854;DHT22;24606;51.992;4.198;2023-04-24T12:30:32;13.90;99.90
38854;DHT22;24606;51.992;4.198;2023-04-24T12:35:34;12.70;99.90
38854;DHT22;24606;51.992;4.198;2023-04-24T12:40:36;13.40;96.40
38854;DHT22;24606;51.992;4.198;2023-04-24T12:45:39;12.70;99.90
38854;DHT22;24606;51.992;4.198;2023-04-24T12:50:41;14.90;97.60
38854;DHT22;24606;51.992;4.198;2023-04-24T12:55:43;13.40;99.90
38854;DHT22;24606;51.992;4.198;2023-04-24T13:00:49;13.00;99.90
38854;DHT22;24606;51.992;4.198;2023-04-24T13:05:51;13.00;99.90
38854;DHT22;24606;51.992;4.198;2023-04-24T13:10:53;15.00;98.00
38854;DHT22;24606;51.992;4.198;2023-04-24T13:15:56;12.80;99.90
38854;DHT22;24606;51.992;4.198;2023-04-24T13:20:58;14.60;99.90
38854;DHT22;24606;51.992;4.198;2023-04-24T13:26:00;12.90;99.90
38854;DHT22;24606;51.992;4.198;2023-04-24T13:31:03;13.20;99.20
38854;DHT22;24606;51.992;4.198;2023-04-24T13:36:05;13.90;97.90
38854;DHT22;24606;51.992;4.198;2023-04-24T13:41:07;14.00;99.90
38854;DHT22;24606;51.992;4.198;2023-04-24T13:46:10;13.70;99.90
38854;DHT22;24606;51.992;4.198;2023-04-24T13:51:12;13.70;92.00
38854;DHT22;24606;51.992;4.198;2023-04-24T13:56:14;13.80;92.30
38854;DHT22;24606;51.992;4.198;2023-04-24T14:01:17;14.50;96.70
38854;DHT22;24606;51.992;4.198;2023-04-24T14:06:19;14.10;99.90
38854;DHT22;24606;51.992;4.198;2023-04-24T14:11:21;13.80;94.70
38854;DHT22;24606;51.992;4.198;2023-04-24T14:16:24;14.70;97.30
38854;DHT22;24606;51.992;4.198;2023-04-24T14:21:26;13.80;97.30
38854;DHT22;24606;51.992;4.198;2023-04-24T14:26:28;16.70;86.70
38854;DHT22;24606;51.992;4.198;2023-04-24T14:31:31;14.70;94.10
38854;DHT22;24606;51.992;4.198;2023-04-24T14:36:33;15.70;93.50
38854;DHT22;24606;51.992;4.198;2023-04-24T14:41:35;16.00;82.20
38854;DHT22;24606;51.992;4.198;2023-04-24T14:46:39;14.00;87.80
38854;DHT22;24606;51.992;4.198;2023-04-24T14:51:41;14.10;89.70
38854;DHT22;24606;51.992;4.198;2023-04-24T14:56:43;13.00;93.70
38854;DHT22;24606;51.992;4.198;2023-04-24T15:01:47;14.20;90.50
38854;DHT22;24606;51.992;4.198;2023-04-24T15:06:48;13.90;99.00
38854;DHT22;24606;51.992;4.198;2023-04-24T15:11:51;14.80;95.20
38854;DHT22;24606;51.992;4.198;2023-04-24T15:16:54;13.70;91.20
38854;DHT22;24606;51.992;4.198;2023-04-24T15:21:56;15.40;97.60
38854;DHT22;24606;51.992;4.198;2023-04-24T15:26:58;15.60;95.80
38854;DHT22;24606;51.992;4.198;2023-04-24T15:32:03;15.80;94.70
38854;DHT22;24606;51.992;4.198;2023-04-24T15:37:05;14.20;91.50
38854;DHT22;24606;51.992;4.198;2023-04-24T15:42:07;14.90;77.80
38854;DHT22;24606;51.992;4.198;2023-04-24T15:47:10;16.60;83.80
38854;DHT22;24606;51.992;4.198;2023-04-24T15:52:14;16.40;87.20
38854;DHT22;24606;51.992;4.198;2023-04-24T15:57:16;15.90;89.80
38854;DHT22;24606;51.992;4.198;2023-04-24T16:02:20;14.70;93.20
38854;DHT22;24606;51.992;4.198;2023-04-24T16:07:22;15.20;97.60
38854;DHT22;24606;51.992;4.198;2023-04-24T16:12:24;15.70;87.50
38854;DHT22;24606;51.992;4.198;2023-04-24T16:17:28;15.10;92.00
38854;DHT22;24606;51.992;4.198;2023-04-24T16:22:30;15.90;93.50
38854;DHT22;24606;51.992;4.198;2023-04-24T16:27:32;14.40;78.20
38854;DHT22;24606;51.992;4.198;2023-04-24T16:32:35;15.10;88.60
38854;DHT22;24606;51.992;4.198;2023-04-24T16:37:37;14.90;92.00
38854;DHT22;24606;51.992;4.198;2023-04-24T16:42:39;14.70;80.00
38854;DHT22;24606;51.992;4.198;2023-04-24T16:47:42;14.40;72.40
38854;DHT22;24606;51.992;4.198;2023-04-24T16:52:44;15.10;99.90
38854;DHT22;24606;51.992;4.198;2023-04-24T16:57:46;13.80;90.30
38854;DHT22;24606;51.992;4.198;2023-04-24T17:02:49;14.30;92.90
38854;DHT22;24606;51.992;4.198;2023-04-24T17:07:51;15.00;83.40
38854;DHT22;24606;51.992;4.198;2023-04-24T17:12:53;14.20;95.80
38854;DHT22;24606;51.992;4.198;2023-04-24T17:17:56;14.80;95.80
38854;DHT22;24606;51.992;4.198;2023-04-24T17:22:58;13.60;87.60
38854;DHT22;24606;51.992;4.198;2023-04-24T17:28:00;14.10;99.90
38854;DHT22;24606;51.992;4.198;2023-04-24T17:33:03;15.50;97.40
38854;DHT22;24606;51.992;4.198;2023-04-24T17:38:05;14.30;99.90
38854;DHT22;24606;51.992;4.198;2023-04-24T17:43:07;14.40;95.30
38854;DHT22;24606;51.992;4.198;2023-04-24T17:48:10;14.80;88.70
38854;DHT22;24606;51.992;4.198;2023-04-24T17:53:13;14.70;90.10
38854;DHT22;24606;51.992;4.198;2023-04-24T17:58:14;14.60;81.80
38854;DHT22;24606;51.992;4.198;2023-04-24T18:03:19;13.90;80.10
38854;DHT22;24606;51.992;4.198;2023-04-24T18:08:21;15.30;98.90
38854;DHT22;24606;51.992;4.198;2023-04-24T18:13:23;15.70;93.80
38854;DHT22;24606;51.992;4.198;2023-04-24T18:18:26;15.30;89.00
38854;DHT22;24606;51.992;4.198;2023-04-24T18:23:28;15.50;96.30
38854;DHT22;24606;51.992;4.198;2023-04-24T18:28:30;16.80;91.90
38854;DHT22;24606;51.992;4.198;2023-04-24T18:33:35;16.80;86.20
38854;DHT22;24606;51.992;4.198;2023-04-24T18:38:37;14.70;90.60
38854;DHT22;24606;51.992;4.198;2023-04-24T18:43:39;14.20;81.40
38854;DHT22;24606;51.992;4.198;2023-04-24T18:48:42;14.70;87.40
38854;DHT22;24606;51.992;4.198;2023-04-24T18:53:44;15.50;90.90
38854;DHT22;24606;51.992;4.198;2023-04-24T18:58:46;15.30;94.80
38854;DHT22;24606;51.992;4.198;2023-04-24T19:03:49;16.80;83.60
38854;DHT22;24606;51.992;4.198;2023-04-24T19:08:51;17.90;78.50
38854;DHT22;24606;51.992;4.198;2023-04-24T19:13:53;15.80;88.90
38854;DHT22;24606;51.992;4.198;2023-04-24T19:18:56;14.00;98.40
38854;DHT22;24606;51.992;4.198;2023-04-24T19:23:58;14.30;97.50
38854;DHT22;24606;51.992;4.198;2023-04-24T19:29:00;13.60;99.90
38854;DHT22;24606;51.992;4.198;2023-04-24T19:34:03;12.00;99.90
38854;DHT22;24606;51.992;4.198;2023-04-24T19:39:06;14.80;92.30
38854;DHT22;24606;51.992;4.198;2023-04-24T19:44:08;14.10;99.90
38854;DHT22;24606;51.992;4.198;2023-04-24T19:49:11;15.50;95.30
38854;DHT22;24606;51.992;4.198;2023-04-24T19:54:14;13.30;99.90
38854;DHT22;24606;51.992;4.198;2023-04-24T19:59:17;15.20;93.70
38854;DHT22;24606;51.992;4.198;2023-04-24T20:04:20;13.80;99.80
38854;DHT22;24606;51.992;4.198;2023-04-24T20:09:22;13.70;99.90
38854;DHT22;24606;51.992;4.198;2023-04-24T20:14:24;15.20;95.30
38854;DHT22;24606;51.992;4.198;2023-04-24T20:19:27;13.60;91.00
38854;DHT22;24606;51.992;4.198;2023-04-24T20:24:29;13.80;95.60
38854;DHT22;24606;51.992;4.198;2023-04-24T20:29:31;14.70;81.20
38854;DHT22;24606;51.992;4.198;2023-04-24T20:34:34;14.80;98.50
38854;DHT22;24606;51.992;4.198;2023-04-24T20:39:36;14.90;83.30
38854;DHT22;24606;51.992;4.198;2023-04-24T20:44:38;15.30;90.30
38854;DHT22;24606;51.992;4.198;2023-04-24T20:49:42;17.00;80.90
38854;DHT22;24606;51.992;4.198;2023-04-24T20:54:43;15.80;93.50
38854;DHT22;24606;51.992;4.198;2023-04-24T20:59:46;14.60;78.10
38854;DHT22;24606;51.992;4.198;2023-04-24T21:04:49;14.90;94.90
38854;DHT22;24606;51.992;4.198;2023-04-24T21:09:51;16.40;90.50
38854;DHT22;24606;51.992;4.198;2023-04-24T21:14:52;17.10;81.90
38854;DHT22;24606;51.992;4.198;2023-04-24T21:19:56;16.30;90.20
38854;DHT22;24606;51.992;4.198;2023-04-24T21:24:58;15.80;90.30
38854;DHT22;24606;51.992;4.198;2023-04-24T21:30:00;16.90;79.90
38854;DHT22;24606;51.992;4.198;2023-04-24T21:35:03;18.00;74.40
38854;DHT22;24606;51.992;4.198;2023-04-24T21:40:06;17.40;77.90
38854;DHT22;24606;51.992;4.198;2023-04-24T21:45:10;16.10;81.20
38854;DHT22;24606;51.992;4.198;2023-04-24T21:50:14;17.60;76.90
38854;DHT22;24606;51.992;4.198;2023-04-24T21:55:15;17.90;74.80
38854;DHT22;24606;51.992;4.198;2023-04-24T22:00:17;17.80;73.50
38854;DHT22;24606;51.992;4.198;2023-04-24T22:05:21;17.40;77.50
38854;DHT22;24606;51.992;4.198;2023-04-24T22:10:23;15.60;77.60
38854;DHT22;24606;51.992;4.198;2023-04-24T22:15:26;16.30;86.20
38854;DHT22;24606;51.992;4.198;2023-04-24T22:20:31;16.40;85.00
38854;DHT22;24606;51.992;4.198;2023-04-24T22:25:33;13.80;69.40
38854;DHT22;24606;51.992;4.198;2023-04-24T22:30:35;15.40;92.00
38854;DHT22;24606;51.992;4.198;2023-04-24T22:35:38;17.00;77.00
38854;DHT22;24606;51.992;4.198;2023-04-24T22:40:40;17.30;73.40
38854;DHT22;24606;51.992;4.198;2023-04-24T22:45:42;15.00;69.80
38854;DHT22;24606;51.992;4.198;2023-04-24T22:50:46;15.00;72.20
38854;DHT22;24606;51.992;4.198;2023-04-24T22:55:48;16.20;83.60
38854;DHT22;24606;51.992;4.198;2023-04-24T23:00:49;16.10;87.20
38854;DHT22;24606;51.992;4.198;2023-04-24T23:05:53;16.30;84.70
38854;DHT22;24606;51.992;4.198;2023-04-24T23:10:55;17.60;70.80
38854;DHT22;24606;51.992;4.198;2023-04-24T23:15:57;14.60;75.10
38854;DHT22;24606;51.992;4.198;2023-04-24T23:21:00;15.80;71.50
38854;DHT22;24606;51.992;4.198;2023-04-24T23:26:02;16.40;82.80
38854;DHT22;24606;51.992;4.198;2023-04-24T23:31:05;17.00;77.70
38854;DHT22;24606;51.992;4.198;2023-04-24T23:36:08;16.10;76.10
38854;DHT22;24606;51.992;4.198;2023-04-24T23:41:11;17.20;76.50
38854;DHT22;24606;51.992;4.198;2023-04-24T23:46:13;16.30;83.10
38854;DHT22;24606;51.992;4.198;2023-04-24T23:51:16;18.00;70.70
38854;DHT22;24606;51.992;4.198;2023-04-24T23:56:18;16.60;75.20
